sensor_id;sensor_type;location;lat;lon;timestamp;P1;durP1;ratioP1;P2;durP2;ratioP2
9218;SDS011;4644;48.858;9.184;2024-02-26T00:01:56;0.70;;;0.70;;
9218;SDS011;4644;48.858;9.184;2024-02-26T00:04:23;0.80;;;0.80;;
9218;SDS011;4644;48.858;9.184;2024-02-26T00:06:50;0.90;;;0.90;;
9218;SDS011;4644;48.858;9.184;2024-02-26T00:09:19;0.70;;;0.70;;
9218;SDS011;4644;48.858;9.184;2024-02-26T00:11:46;1.10;;;0.90;;
9218;SDS011;4644;48.858;9.184;2024-02-26T00:14:12;0.80;;;0.80;;
9218;SDS011;4644;48.858;9.184;2024-02-26T00:16:43;0.90;;;0.90;;
9218;SDS011;4644;48.858;9.184;2024-02-26T00:19:11;0.93;;;0.93;;
9218;SDS011;4644;48.858;9.184;2024-02-26T00:21:39;0.80;;;0.80;;
9218;SDS011;4644;48.858;9.184;2024-02-26T00:24:06;1.20;;;0.80;;
9218;SDS011;4644;48.858;9.184;2024-02-26T00:26:32;0.80;;;0.80;;
9218;SDS011;4644;48.858;9.184;2024-02-26T00:28:59;0.70;;;0.70;;
9218;SDS011;4644;48.858;9.184;2024-02-26T00:31:26;0.70;;;0.70;;
9218;SDS011;4644;48.858;9.184;2024-02-26T00:33:54;0.80;;;0.80;;
9218;SDS011;4644;48.858;9.184;2024-02-26T00:36:21;0.70;;;0.70;;
9218;SDS011;4644;48.858;9.184;2024-02-26T00:38:48;0.60;;;0.60;;
9218;SDS011;4644;48.858;9.184;2024-02-26T00:41:16;0.70;;;0.70;;
9218;SDS011;4644;48.858;9.184;2024-02-26T00:43:43;0.70;;;0.70;;
9218;SDS011;4644;48.858;9.184;2024-02-26T00:46:10;0.60;;;0.60;;
9218;SDS011;4644;48.858;9.184;2024-02-26T00:48:37;0.70;;;0.70;;
9218;SDS011;4644;48.858;9.184;2024-02-26T00:53:33;1.50;;;0.90;;
9218;SDS011;4644;48.858;9.184;2024-02-26T00:56:00;0.80;;;0.80;;
9218;SDS011;4644;48.858;9.184;2024-02-26T00:58:27;0.60;;;0.60;;
9218;SDS011;4644;48.858;9.184;2024-02-26T01:00:54;0.80;;;0.80;;
9218;SDS011;4644;48.858;9.184;2024-02-26T01:03:21;0.80;;;0.80;;
9218;SDS011;4644;48.858;9.184;2024-02-26T01:05:47;1.33;;;0.87;;
9218;SDS011;4644;48.858;9.184;2024-02-26T01:08:16;0.70;;;0.70;;
9218;SDS011;4644;48.858;9.184;2024-02-26T01:10:44;0.87;;;0.87;;
9218;SDS011;4644;48.858;9.184;2024-02-26T01:13:11;1.10;;;1.00;;
9218;SDS011;4644;48.858;9.184;2024-02-26T01:15:38;1.10;;;0.93;;
9218;SDS011;4644;48.858;9.184;2024-02-26T01:18:05;0.73;;;0.73;;
9218;SDS011;4644;48.858;9.184;2024-02-26T01:20:32;0.60;;;0.60;;
9218;SDS011;4644;48.858;9.184;2024-02-26T01:22:59;0.83;;;0.83;;
9218;SDS011;4644;48.858;9.184;2024-02-26T01:25:27;0.60;;;0.60;;
9218;SDS011;4644;48.858;9.184;2024-02-26T01:27:54;0.83;;;0.83;;
9218;SDS011;4644;48.858;9.184;2024-02-26T01:30:21;0.77;;;0.77;;
9218;SDS011;4644;48.858;9.184;2024-02-26T01:32:48;0.70;;;0.70;;
9218;SDS011;4644;48.858;9.184;2024-02-26T01:35:14;0.80;;;0.80;;
9218;SDS011;4644;48.858;9.184;2024-02-26T01:37:41;0.70;;;0.70;;
9218;SDS011;4644;48.858;9.184;2024-02-26T01:40:09;1.53;;;0.70;;
9218;SDS011;4644;48.858;9.184;2024-02-26T01:42:39;0.73;;;0.73;;
9218;SDS011;4644;48.858;9.184;2024-02-26T01:45:06;1.40;;;0.80;;
9218;SDS011;4644;48.858;9.184;2024-02-26T01:47:40;0.93;;;0.80;;
9218;SDS011;4644;48.858;9.184;2024-02-26T01:50:08;0.70;;;0.70;;
9218;SDS011;4644;48.858;9.184;2024-02-26T01:52:37;1.00;;;0.87;;
9218;SDS011;4644;48.858;9.184;2024-02-26T01:55:04;0.80;;;0.80;;
9218;SDS011;4644;48.858;9.184;2024-02-26T01:57:31;0.67;;;0.57;;
9218;SDS011;4644;48.858;9.184;2024-02-26T02:00:00;0.70;;;0.60;;
9218;SDS011;4644;48.858;9.184;2024-02-26T02:02:30;0.60;;;0.60;;
9218;SDS011;4644;48.858;9.184;2024-02-26T02:04:57;0.80;;;0.80;;
9218;SDS011;4644;48.858;9.184;2024-02-26T02:07:24;0.77;;;0.77;;
9218;SDS011;4644;48.858;9.184;2024-02-26T02:09:52;0.67;;;0.67;;
9218;SDS011;4644;48.858;9.184;2024-02-26T02:12:19;0.70;;;0.70;;
9218;SDS011;4644;48.858;9.184;2024-02-26T02:14:47;0.90;;;0.90;;
9218;SDS011;4644;48.858;9.184;2024-02-26T02:17:15;0.97;;;0.97;;
9218;SDS011;4644;48.858;9.184;2024-02-26T02:19:42;0.60;;;0.60;;
9218;SDS011;4644;48.858;9.184;2024-02-26T02:22:10;0.80;;;0.80;;
9218;SDS011;4644;48.858;9.184;2024-02-26T02:24:37;1.00;;;1.00;;
9218;SDS011;4644;48.858;9.184;2024-02-26T02:27:04;0.53;;;0.53;;
9218;SDS011;4644;48.858;9.184;2024-02-26T02:29:31;0.80;;;0.80;;
9218;SDS011;4644;48.858;9.184;2024-02-26T02:31:58;0.90;;;0.90;;
9218;SDS011;4644;48.858;9.184;2024-02-26T02:34:27;1.03;;;0.93;;
9218;SDS011;4644;48.858;9.184;2024-02-26T02:36:54;1.10;;;1.00;;
9218;SDS011;4644;48.858;9.184;2024-02-26T02:39:22;0.83;;;0.83;;
9218;SDS011;4644;48.858;9.184;2024-02-26T02:41:49;1.33;;;0.90;;
9218;SDS011;4644;48.858;9.184;2024-02-26T02:44:16;0.70;;;0.70;;
9218;SDS011;4644;48.858;9.184;2024-02-26T02:46:43;0.60;;;0.60;;
9218;SDS011;4644;48.858;9.184;2024-02-26T02:49:10;0.63;;;0.63;;
9218;SDS011;4644;48.858;9.184;2024-02-26T02:51:37;0.77;;;0.73;;
9218;SDS011;4644;48.858;9.184;2024-02-26T02:54:04;0.77;;;0.77;;
9218;SDS011;4644;48.858;9.184;2024-02-26T02:56:32;1.33;;;0.90;;
9218;SDS011;4644;48.858;9.184;2024-02-26T02:58:59;0.90;;;0.90;;
9218;SDS011;4644;48.858;9.184;2024-02-26T03:01:26;0.80;;;0.80;;
9218;SDS011;4644;48.858;9.184;2024-02-26T03:03:53;0.70;;;0.70;;
9218;SDS011;4644;48.858;9.184;2024-02-26T03:06:19;0.77;;;0.77;;
9218;SDS011;4644;48.858;9.184;2024-02-26T03:08:47;0.70;;;0.70;;
9218;SDS011;4644;48.858;9.184;2024-02-26T03:11:14;0.50;;;0.50;;
9218;SDS011;4644;48.858;9.184;2024-02-26T03:13:42;0.63;;;0.63;;
9218;SDS011;4644;48.858;9.184;2024-02-26T03:16:09;0.60;;;0.60;;
9218;SDS011;4644;48.858;9.184;2024-02-26T03:18:38;0.70;;;0.70;;
9218;SDS011;4644;48.858;9.184;2024-02-26T03:21:05;0.70;;;0.70;;
9218;SDS011;4644;48.858;9.184;2024-02-26T03:23:32;0.93;;;0.93;;
9218;SDS011;4644;48.858;9.184;2024-02-26T03:26:01;0.60;;;0.60;;
9218;SDS011;4644;48.858;9.184;2024-02-26T03:28:28;0.70;;;0.70;;
9218;SDS011;4644;48.858;9.184;2024-02-26T03:30:57;1.93;;;1.00;;
9218;SDS011;4644;48.858;9.184;2024-02-26T03:33:24;0.73;;;0.73;;
9218;SDS011;4644;48.858;9.184;2024-02-26T03:35:51;0.87;;;0.80;;
9218;SDS011;4644;48.858;9.184;2024-02-26T03:38:18;0.77;;;0.77;;
9218;SDS011;4644;48.858;9.184;2024-02-26T03:40:45;0.70;;;0.70;;
9218;SDS011;4644;48.858;9.184;2024-02-26T03:43:11;0.97;;;0.97;;
9218;SDS011;4644;48.858;9.184;2024-02-26T03:45:38;1.10;;;1.00;;
9218;SDS011;4644;48.858;9.184;2024-02-26T03:48:07;0.70;;;0.70;;
9218;SDS011;4644;48.858;9.184;2024-02-26T03:50:35;0.53;;;0.53;;
9218;SDS011;4644;48.858;9.184;2024-02-26T03:53:02;0.70;;;0.70;;
9218;SDS011;4644;48.858;9.184;2024-02-26T03:55:29;0.70;;;0.70;;
9218;SDS011;4644;48.858;9.184;2024-02-26T03:57:56;0.90;;;0.90;;
9218;SDS011;4644;48.858;9.184;2024-02-26T04:00:23;0.67;;;0.67;;
9218;SDS011;4644;48.858;9.184;2024-02-26T04:02:51;0.90;;;0.90;;
9218;SDS011;4644;48.858;9.184;2024-02-26T04:05:19;1.00;;;0.90;;
9218;SDS011;4644;48.858;9.184;2024-02-26T04:07:46;0.90;;;0.90;;
9218;SDS011;4644;48.858;9.184;2024-02-26T04:10:13;0.80;;;0.80;;
9218;SDS011;4644;48.858;9.184;2024-02-26T04:12:40;2.10;;;1.37;;
9218;SDS011;4644;48.858;9.184;2024-02-26T04:15:09;0.83;;;0.83;;
9218;SDS011;4644;48.858;9.184;2024-02-26T04:17:36;0.50;;;0.50;;
9218;SDS011;4644;48.858;9.184;2024-02-26T04:20:04;0.70;;;0.70;;
9218;SDS011;4644;48.858;9.184;2024-02-26T04:22:33;0.80;;;0.80;;
9218;SDS011;4644;48.858;9.184;2024-02-26T04:25:00;1.43;;;1.00;;
9218;SDS011;4644;48.858;9.184;2024-02-26T04:27:28;0.70;;;0.67;;
9218;SDS011;4644;48.858;9.184;2024-02-26T04:29:54;0.80;;;0.80;;
9218;SDS011;4644;48.858;9.184;2024-02-26T04:32:21;0.50;;;0.50;;
9218;SDS011;4644;48.858;9.184;2024-02-26T04:34:48;1.17;;;0.70;;
9218;SDS011;4644;48.858;9.184;2024-02-26T04:37:15;0.73;;;0.73;;
9218;SDS011;4644;48.858;9.184;2024-02-26T04:39:43;0.97;;;0.80;;
9218;SDS011;4644;48.858;9.184;2024-02-26T04:42:10;0.77;;;0.73;;
9218;SDS011;4644;48.858;9.184;2024-02-26T04:44:37;0.50;;;0.50;;
9218;SDS011;4644;48.858;9.184;2024-02-26T04:47:04;0.70;;;0.70;;
9218;SDS011;4644;48.858;9.184;2024-02-26T04:49:32;0.90;;;0.73;;
9218;SDS011;4644;48.858;9.184;2024-02-26T04:52:00;0.83;;;0.83;;
9218;SDS011;4644;48.858;9.184;2024-02-26T04:54:26;1.50;;;1.00;;
9218;SDS011;4644;48.858;9.184;2024-02-26T04:56:55;2.40;;;1.70;;
9218;SDS011;4644;48.858;9.184;2024-02-26T04:59:21;0.97;;;0.97;;
9218;SDS011;4644;48.858;9.184;2024-02-26T05:01:48;0.97;;;0.93;;
9218;SDS011;4644;48.858;9.184;2024-02-26T05:04:17;1.70;;;1.20;;
9218;SDS011;4644;48.858;9.184;2024-02-26T05:06:44;0.77;;;0.77;;
9218;SDS011;4644;48.858;9.184;2024-02-26T05:09:11;0.83;;;0.83;;
9218;SDS011;4644;48.858;9.184;2024-02-26T05:11:38;0.70;;;0.70;;
9218;SDS011;4644;48.858;9.184;2024-02-26T05:14:06;0.60;;;0.60;;
9218;SDS011;4644;48.858;9.184;2024-02-26T05:16:34;0.70;;;0.70;;
9218;SDS011;4644;48.858;9.184;2024-02-26T05:19:01;0.70;;;0.70;;
9218;SDS011;4644;48.858;9.184;2024-02-26T05:21:28;0.63;;;0.63;;
9218;SDS011;4644;48.858;9.184;2024-02-26T05:23:54;0.90;;;0.90;;
9218;SDS011;4644;48.858;9.184;2024-02-26T05:26:21;0.60;;;0.60;;
9218;SDS011;4644;48.858;9.184;2024-02-26T05:28:48;1.90;;;0.83;;
9218;SDS011;4644;48.858;9.184;2024-02-26T05:31:16;0.80;;;0.80;;
9218;SDS011;4644;48.858;9.184;2024-02-26T05:33:43;0.77;;;0.77;;
9218;SDS011;4644;48.858;9.184;2024-02-26T05:36:11;1.20;;;1.10;;
9218;SDS011;4644;48.858;9.184;2024-02-26T05:38:44;0.83;;;0.83;;
9218;SDS011;4644;48.858;9.184;2024-02-26T05:41:12;0.80;;;0.80;;
9218;SDS011;4644;48.858;9.184;2024-02-26T05:43:38;1.10;;;1.00;;
9218;SDS011;4644;48.858;9.184;2024-02-26T05:46:05;0.80;;;0.80;;
9218;SDS011;4644;48.858;9.184;2024-02-26T05:48:33;0.80;;;0.80;;
9218;SDS011;4644;48.858;9.184;2024-02-26T05:51:00;0.90;;;0.90;;
9218;SDS011;4644;48.858;9.184;2024-02-26T05:53:27;0.83;;;0.83;;
9218;SDS011;4644;48.858;9.184;2024-02-26T05:55:54;0.70;;;0.70;;
9218;SDS011;4644;48.858;9.184;2024-02-26T05:58:20;1.27;;;1.17;;
9218;SDS011;4644;48.858;9.184;2024-02-26T06:00:47;0.80;;;0.80;;
9218;SDS011;4644;48.858;9.184;2024-02-26T06:03:14;0.80;;;0.80;;
9218;SDS011;4644;48.858;9.184;2024-02-26T06:05:43;0.80;;;0.80;;
9218;SDS011;4644;48.858;9.184;2024-02-26T06:08:10;0.70;;;0.70;;
9218;SDS011;4644;48.858;9.184;2024-02-26T06:10:37;0.70;;;0.70;;
9218;SDS011;4644;48.858;9.184;2024-02-26T06:13:04;0.83;;;0.83;;
9218;SDS011;4644;48.858;9.184;2024-02-26T06:15:31;0.77;;;0.77;;
9218;SDS011;4644;48.858;9.184;2024-02-26T06:17:58;0.70;;;0.70;;
9218;SDS011;4644;48.858;9.184;2024-02-26T06:20:25;2.33;;;1.07;;
9218;SDS011;4644;48.858;9.184;2024-02-26T06:22:56;1.43;;;0.90;;
9218;SDS011;4644;48.858;9.184;2024-02-26T06:25:23;1.10;;;1.00;;
9218;SDS011;4644;48.858;9.184;2024-02-26T06:27:50;1.00;;;1.00;;
9218;SDS011;4644;48.858;9.184;2024-02-26T06:30:17;0.80;;;0.80;;
9218;SDS011;4644;48.858;9.184;2024-02-26T06:32:44;0.83;;;0.83;;
9218;SDS011;4644;48.858;9.184;2024-02-26T06:35:11;0.80;;;0.80;;
9218;SDS011;4644;48.858;9.184;2024-02-26T06:37:38;0.70;;;0.70;;
9218;SDS011;4644;48.858;9.184;2024-02-26T06:40:07;0.77;;;0.77;;
9218;SDS011;4644;48.858;9.184;2024-02-26T06:42:34;0.70;;;0.70;;
9218;SDS011;4644;48.858;9.184;2024-02-26T06:45:05;1.93;;;1.03;;
9218;SDS011;4644;48.858;9.184;2024-02-26T06:47:32;0.90;;;0.90;;
9218;SDS011;4644;48.858;9.184;2024-02-26T06:49:59;1.37;;;0.93;;
9218;SDS011;4644;48.858;9.184;2024-02-26T06:52:26;1.23;;;1.20;;
9218;SDS011;4644;48.858;9.184;2024-02-26T06:54:53;1.53;;;0.90;;
9218;SDS011;4644;48.858;9.184;2024-02-26T06:57:21;1.33;;;1.23;;
9218;SDS011;4644;48.858;9.184;2024-02-26T06:59:48;0.90;;;0.90;;
9218;SDS011;4644;48.858;9.184;2024-02-26T07:02:15;1.53;;;1.27;;
9218;SDS011;4644;48.858;9.184;2024-02-26T07:04:42;1.50;;;1.40;;
9218;SDS011;4644;48.858;9.184;2024-02-26T07:07:09;5.20;;;1.27;;
9218;SDS011;4644;48.858;9.184;2024-02-26T07:09:36;1.20;;;1.10;;
9218;SDS011;4644;48.858;9.184;2024-02-26T07:12:03;2.37;;;1.70;;
9218;SDS011;4644;48.858;9.184;2024-02-26T07:14:31;0.93;;;0.93;;
9218;SDS011;4644;48.858;9.184;2024-02-26T07:16:59;1.80;;;1.67;;
9218;SDS011;4644;48.858;9.184;2024-02-26T07:19:25;2.17;;;1.00;;
9218;SDS011;4644;48.858;9.184;2024-02-26T07:21:52;0.93;;;0.73;;
9218;SDS011;4644;48.858;9.184;2024-02-26T07:24:19;0.77;;;0.77;;
9218;SDS011;4644;48.858;9.184;2024-02-26T07:26:45;1.00;;;1.00;;
9218;SDS011;4644;48.858;9.184;2024-02-26T07:29:12;1.03;;;0.97;;
9218;SDS011;4644;48.858;9.184;2024-02-26T07:31:40;1.00;;;1.00;;
9218;SDS011;4644;48.858;9.184;2024-02-26T07:34:06;2.10;;;1.03;;
9218;SDS011;4644;48.858;9.184;2024-02-26T07:36:33;1.27;;;1.10;;
9218;SDS011;4644;48.858;9.184;2024-02-26T07:39:01;0.80;;;0.80;;
9218;SDS011;4644;48.858;9.184;2024-02-26T07:41:28;1.17;;;0.90;;
9218;SDS011;4644;48.858;9.184;2024-02-26T07:43:54;0.80;;;0.80;;
9218;SDS011;4644;48.858;9.184;2024-02-26T07:46:21;0.77;;;0.77;;
9218;SDS011;4644;48.858;9.184;2024-02-26T07:48:49;1.00;;;1.00;;
9218;SDS011;4644;48.858;9.184;2024-02-26T07:51:16;1.17;;;1.03;;
9218;SDS011;4644;48.858;9.184;2024-02-26T07:53:44;1.90;;;1.10;;
9218;SDS011;4644;48.858;9.184;2024-02-26T07:56:11;0.97;;;0.87;;
9218;SDS011;4644;48.858;9.184;2024-02-26T07:58:37;1.23;;;1.23;;
9218;SDS011;4644;48.858;9.184;2024-02-26T08:01:04;1.27;;;1.17;;
9218;SDS011;4644;48.858;9.184;2024-02-26T08:03:31;1.50;;;1.40;;
9218;SDS011;4644;48.858;9.184;2024-02-26T08:05:59;1.73;;;0.90;;
9218;SDS011;4644;48.858;9.184;2024-02-26T08:08:26;1.43;;;1.03;;
9218;SDS011;4644;48.858;9.184;2024-02-26T08:10:52;1.07;;;1.07;;
9218;SDS011;4644;48.858;9.184;2024-02-26T08:13:19;1.13;;;1.13;;
9218;SDS011;4644;48.858;9.184;2024-02-26T08:15:46;1.50;;;1.07;;
9218;SDS011;4644;48.858;9.184;2024-02-26T08:18:13;1.43;;;1.20;;
9218;SDS011;4644;48.858;9.184;2024-02-26T08:20:41;1.33;;;1.23;;
9218;SDS011;4644;48.858;9.184;2024-02-26T08:23:09;4.20;;;1.93;;
9218;SDS011;4644;48.858;9.184;2024-02-26T08:25:36;1.30;;;1.20;;
9218;SDS011;4644;48.858;9.184;2024-02-26T08:28:03;1.57;;;1.47;;
9218;SDS011;4644;48.858;9.184;2024-02-26T08:30:30;2.07;;;1.40;;
9218;SDS011;4644;48.858;9.184;2024-02-26T08:32:57;1.37;;;1.00;;
9218;SDS011;4644;48.858;9.184;2024-02-26T08:35:24;1.27;;;1.20;;
9218;SDS011;4644;48.858;9.184;2024-02-26T08:37:50;1.00;;;1.00;;
9218;SDS011;4644;48.858;9.184;2024-02-26T08:40:19;1.43;;;1.10;;
9218;SDS011;4644;48.858;9.184;2024-02-26T08:42:45;1.40;;;1.30;;
9218;SDS011;4644;48.858;9.184;2024-02-26T08:45:12;1.60;;;1.23;;
9218;SDS011;4644;48.858;9.184;2024-02-26T08:47:39;1.33;;;1.03;;
9218;SDS011;4644;48.858;9.184;2024-02-26T08:50:06;1.10;;;1.10;;
9218;SDS011;4644;48.858;9.184;2024-02-26T08:52:34;1.37;;;1.17;;
9218;SDS011;4644;48.858;9.184;2024-02-26T08:55:01;1.33;;;1.20;;
9218;SDS011;4644;48.858;9.184;2024-02-26T08:57:30;1.23;;;1.10;;
9218;SDS011;4644;48.858;9.184;2024-02-26T08:59:58;1.60;;;1.20;;
9218;SDS011;4644;48.858;9.184;2024-02-26T09:02:25;1.93;;;1.20;;
9218;SDS011;4644;48.858;9.184;2024-02-26T09:04:52;0.70;;;0.70;;
9218;SDS011;4644;48.858;9.184;2024-02-26T09:07:20;1.13;;;1.00;;
9218;SDS011;4644;48.858;9.184;2024-02-26T09:09:47;0.90;;;0.90;;
9218;SDS011;4644;48.858;9.184;2024-02-26T09:12:13;0.90;;;0.90;;
9218;SDS011;4644;48.858;9.184;2024-02-26T09:14:41;0.97;;;0.97;;
9218;SDS011;4644;48.858;9.184;2024-02-26T09:17:08;1.03;;;1.03;;
9218;SDS011;4644;48.858;9.184;2024-02-26T09:19:35;0.80;;;0.80;;
9218;SDS011;4644;48.858;9.184;2024-02-26T09:22:03;0.77;;;0.77;;
9218;SDS011;4644;48.858;9.184;2024-02-26T09:24:29;1.20;;;1.10;;
9218;SDS011;4644;48.858;9.184;2024-02-26T09:26:56;0.87;;;0.87;;
9218;SDS011;4644;48.858;9.184;2024-02-26T09:29:23;0.80;;;0.80;;
9218;SDS011;4644;48.858;9.184;2024-02-26T09:31:52;0.80;;;0.80;;
9218;SDS011;4644;48.858;9.184;2024-02-26T09:34:19;1.00;;;1.00;;
9218;SDS011;4644;48.858;9.184;2024-02-26T09:36:46;0.90;;;0.90;;
9218;SDS011;4644;48.858;9.184;2024-02-26T09:39:13;0.70;;;0.70;;
9218;SDS011;4644;48.858;9.184;2024-02-26T09:41:45;0.80;;;0.80;;
9218;SDS011;4644;48.858;9.184;2024-02-26T09:44:12;0.70;;;0.70;;
9218;SDS011;4644;48.858;9.184;2024-02-26T09:46:41;0.83;;;0.83;;
9218;SDS011;4644;48.858;9.184;2024-02-26T09:49:10;1.80;;;0.97;;
9218;SDS011;4644;48.858;9.184;2024-02-26T09:51:38;0.80;;;0.80;;
9218;SDS011;4644;48.858;9.184;2024-02-26T09:54:05;0.90;;;0.90;;
9218;SDS011;4644;48.858;9.184;2024-02-26T09:56:35;0.63;;;0.63;;
9218;SDS011;4644;48.858;9.184;2024-02-26T09:59:03;0.90;;;0.90;;
9218;SDS011;4644;48.858;9.184;2024-02-26T10:01:36;0.80;;;0.80;;
9218;SDS011;4644;48.858;9.184;2024-02-26T10:04:05;1.80;;;1.70;;
9218;SDS011;4644;48.858;9.184;2024-02-26T10:06:33;1.37;;;1.17;;
9218;SDS011;4644;48.858;9.184;2024-02-26T10:09:02;1.80;;;1.00;;
9218;SDS011;4644;48.858;9.184;2024-02-26T10:11:32;1.17;;;1.00;;
9218;SDS011;4644;48.858;9.184;2024-02-26T10:13:59;1.17;;;1.07;;
9218;SDS011;4644;48.858;9.184;2024-02-26T10:16:26;1.27;;;1.17;;
9218;SDS011;4644;48.858;9.184;2024-02-26T10:18:53;0.80;;;0.80;;
9218;SDS011;4644;48.858;9.184;2024-02-26T10:21:20;1.30;;;1.20;;
9218;SDS011;4644;48.858;9.184;2024-02-26T10:23:48;1.00;;;1.00;;
9218;SDS011;4644;48.858;9.184;2024-02-26T10:26:16;2.50;;;1.60;;
9218;SDS011;4644;48.858;9.184;2024-02-26T10:28:43;0.70;;;0.70;;
9218;SDS011;4644;48.858;9.184;2024-02-26T10:31:11;1.47;;;0.80;;
9218;SDS011;4644;48.858;9.184;2024-02-26T10:33:39;0.87;;;0.87;;
9218;SDS011;4644;48.858;9.184;2024-02-26T10:36:08;0.80;;;0.80;;
9218;SDS011;4644;48.858;9.184;2024-02-26T10:38:35;1.13;;;0.90;;
9218;SDS011;4644;48.858;9.184;2024-02-26T10:41:04;1.10;;;1.10;;
9218;SDS011;4644;48.858;9.184;2024-02-26T10:43:33;1.50;;;1.40;;
9218;SDS011;4644;48.858;9.184;2024-02-26T10:46:00;1.87;;;1.40;;
9218;SDS011;4644;48.858;9.184;2024-02-26T10:48:26;1.43;;;1.30;;
9218;SDS011;4644;48.858;9.184;2024-02-26T10:50:53;0.80;;;0.80;;
9218;SDS011;4644;48.858;9.184;2024-02-26T10:53:22;1.73;;;1.10;;
9218;SDS011;4644;48.858;9.184;2024-02-26T10:55:53;0.93;;;0.90;;
9218;SDS011;4644;48.858;9.184;2024-02-26T10:58:24;1.17;;;1.07;;
9218;SDS011;4644;48.858;9.184;2024-02-26T11:00:52;1.00;;;1.00;;
9218;SDS011;4644;48.858;9.184;2024-02-26T11:03:19;0.70;;;0.70;;
9218;SDS011;4644;48.858;9.184;2024-02-26T11:05:47;0.80;;;0.80;;
9218;SDS011;4644;48.858;9.184;2024-02-26T11:08:15;0.60;;;0.60;;
9218;SDS011;4644;48.858;9.184;2024-02-26T11:10:46;2.13;;;0.87;;
9218;SDS011;4644;48.858;9.184;2024-02-26T11:13:14;0.83;;;0.80;;
9218;SDS011;4644;48.858;9.184;2024-02-26T11:15:45;0.60;;;0.60;;
9218;SDS011;4644;48.858;9.184;2024-02-26T11:18:13;0.50;;;0.50;;
9218;SDS011;4644;48.858;9.184;2024-02-26T11:20:41;0.80;;;0.80;;
9218;SDS011;4644;48.858;9.184;2024-02-26T11:23:08;0.70;;;0.70;;
9218;SDS011;4644;48.858;9.184;2024-02-26T11:25:35;0.90;;;0.83;;
9218;SDS011;4644;48.858;9.184;2024-02-26T11:28:05;0.80;;;0.80;;
9218;SDS011;4644;48.858;9.184;2024-02-26T11:30:35;1.13;;;1.00;;
9218;SDS011;4644;48.858;9.184;2024-02-26T11:33:07;0.77;;;0.77;;
9218;SDS011;4644;48.858;9.184;2024-02-26T11:35:35;0.80;;;0.80;;
9218;SDS011;4644;48.858;9.184;2024-02-26T11:38:03;0.70;;;0.70;;
9218;SDS011;4644;48.858;9.184;2024-02-26T11:40:31;0.70;;;0.70;;
9218;SDS011;4644;48.858;9.184;2024-02-26T11:42:58;0.70;;;0.70;;
9218;SDS011;4644;48.858;9.184;2024-02-26T11:48:21;0.60;;;0.60;;
9218;SDS011;4644;48.858;9.184;2024-02-26T11:50:49;0.60;;;0.60;;
9218;SDS011;4644;48.858;9.184;2024-02-26T11:53:20;0.70;;;0.70;;
9218;SDS011;4644;48.858;9.184;2024-02-26T11:55:48;1.07;;;0.70;;
9218;SDS011;4644;48.858;9.184;2024-02-26T11:58:35;0.80;;;0.80;;
9218;SDS011;4644;48.858;9.184;2024-02-26T12:01:02;0.70;;;0.70;;
9218;SDS011;4644;48.858;9.184;2024-02-26T12:03:31;0.57;;;0.57;;
9218;SDS011;4644;48.858;9.184;2024-02-26T12:05:57;0.63;;;0.63;;
9218;SDS011;4644;48.858;9.184;2024-02-26T12:08:25;0.53;;;0.53;;
9218;SDS011;4644;48.858;9.184;2024-02-26T12:10:53;0.70;;;0.70;;
9218;SDS011;4644;48.858;9.184;2024-02-26T12:13:21;0.70;;;0.70;;
9218;SDS011;4644;48.858;9.184;2024-02-26T12:15:56;0.63;;;0.63;;
9218;SDS011;4644;48.858;9.184;2024-02-26T12:18:24;0.83;;;0.80;;
9218;SDS011;4644;48.858;9.184;2024-02-26T12:20:59;0.87;;;0.80;;
9218;SDS011;4644;48.858;9.184;2024-02-26T12:23:26;2.00;;;0.90;;
9218;SDS011;4644;48.858;9.184;2024-02-26T12:25:54;0.70;;;0.67;;
9218;SDS011;4644;48.858;9.184;2024-02-26T12:28:27;0.80;;;0.80;;
9218;SDS011;4644;48.858;9.184;2024-02-26T12:30:54;0.60;;;0.60;;
9218;SDS011;4644;48.858;9.184;2024-02-26T12:33:21;1.40;;;0.60;;
9218;SDS011;4644;48.858;9.184;2024-02-26T12:35:48;0.70;;;0.70;;
9218;SDS011;4644;48.858;9.184;2024-02-26T12:38:17;0.60;;;0.60;;
9218;SDS011;4644;48.858;9.184;2024-02-26T12:40:44;0.60;;;0.60;;
9218;SDS011;4644;48.858;9.184;2024-02-26T12:43:13;1.40;;;0.90;;
9218;SDS011;4644;48.858;9.184;2024-02-26T12:45:41;0.60;;;0.60;;
9218;SDS011;4644;48.858;9.184;2024-02-26T12:48:10;0.70;;;0.70;;
9218;SDS011;4644;48.858;9.184;2024-02-26T12:50:38;0.87;;;0.80;;
9218;SDS011;4644;48.858;9.184;2024-02-26T12:53:05;0.60;;;0.60;;
9218;SDS011;4644;48.858;9.184;2024-02-26T12:55:33;0.90;;;0.90;;
9218;SDS011;4644;48.858;9.184;2024-02-26T12:58:04;0.80;;;0.80;;
9218;SDS011;4644;48.858;9.184;2024-02-26T13:00:31;0.70;;;0.70;;
9218;SDS011;4644;48.858;9.184;2024-02-26T13:03:01;0.70;;;0.70;;
9218;SDS011;4644;48.858;9.184;2024-02-26T13:05:28;0.60;;;0.60;;
9218;SDS011;4644;48.858;9.184;2024-02-26T13:07:56;0.73;;;0.73;;
9218;SDS011;4644;48.858;9.184;2024-02-26T13:10:23;0.67;;;0.67;;
9218;SDS011;4644;48.858;9.184;2024-02-26T13:12:52;0.67;;;0.67;;
9218;SDS011;4644;48.858;9.184;2024-02-26T13:15:19;1.07;;;1.03;;
9218;SDS011;4644;48.858;9.184;2024-02-26T13:17:47;1.73;;;0.80;;
9218;SDS011;4644;48.858;9.184;2024-02-26T13:20:25;0.83;;;0.83;;
9218;SDS011;4644;48.858;9.184;2024-02-26T13:22:59;0.83;;;0.83;;
9218;SDS011;4644;48.858;9.184;2024-02-26T13:25:26;0.90;;;0.90;;
9218;SDS011;4644;48.858;9.184;2024-02-26T13:28:05;0.87;;;0.77;;
9218;SDS011;4644;48.858;9.184;2024-02-26T13:30:33;0.60;;;0.60;;
9218;SDS011;4644;48.858;9.184;2024-02-26T13:33:06;0.67;;;0.67;;
9218;SDS011;4644;48.858;9.184;2024-02-26T13:35:35;0.70;;;0.60;;
9218;SDS011;4644;48.858;9.184;2024-02-26T13:38:04;0.67;;;0.67;;
9218;SDS011;4644;48.858;9.184;2024-02-26T13:40:31;0.50;;;0.50;;
9218;SDS011;4644;48.858;9.184;2024-02-26T13:42:59;0.90;;;0.73;;
9218;SDS011;4644;48.858;9.184;2024-02-26T13:45:27;0.70;;;0.70;;
9218;SDS011;4644;48.858;9.184;2024-02-26T13:47:54;0.53;;;0.53;;
9218;SDS011;4644;48.858;9.184;2024-02-26T13:50:27;0.50;;;0.50;;
9218;SDS011;4644;48.858;9.184;2024-02-26T13:52:53;0.50;;;0.50;;
9218;SDS011;4644;48.858;9.184;2024-02-26T13:55:21;0.73;;;0.73;;
9218;SDS011;4644;48.858;9.184;2024-02-26T13:57:51;0.40;;;0.40;;
9218;SDS011;4644;48.858;9.184;2024-02-26T14:00:19;0.73;;;0.57;;
9218;SDS011;4644;48.858;9.184;2024-02-26T14:02:47;0.70;;;0.70;;
9218;SDS011;4644;48.858;9.184;2024-02-26T14:05:14;0.40;;;0.40;;
9218;SDS011;4644;48.858;9.184;2024-02-26T14:07:41;0.53;;;0.53;;
9218;SDS011;4644;48.858;9.184;2024-02-26T14:10:08;0.43;;;0.43;;
9218;SDS011;4644;48.858;9.184;2024-02-26T14:12:37;0.50;;;0.50;;
9218;SDS011;4644;48.858;9.184;2024-02-26T14:15:07;0.50;;;0.50;;
9218;SDS011;4644;48.858;9.184;2024-02-26T14:17:34;0.40;;;0.40;;
9218;SDS011;4644;48.858;9.184;2024-02-26T14:20:02;0.40;;;0.40;;
9218;SDS011;4644;48.858;9.184;2024-02-26T14:22:30;0.30;;;0.30;;
9218;SDS011;4644;48.858;9.184;2024-02-26T14:24:57;0.40;;;0.40;;
9218;SDS011;4644;48.858;9.184;2024-02-26T14:27:24;0.40;;;0.40;;
9218;SDS011;4644;48.858;9.184;2024-02-26T14:29:51;0.33;;;0.33;;
9218;SDS011;4644;48.858;9.184;2024-02-26T14:32:18;0.40;;;0.40;;
9218;SDS011;4644;48.858;9.184;2024-02-26T14:34:45;0.30;;;0.30;;
9218;SDS011;4644;48.858;9.184;2024-02-26T14:37:14;0.30;;;0.30;;
9218;SDS011;4644;48.858;9.184;2024-02-26T14:39:41;0.40;;;0.40;;
9218;SDS011;4644;48.858;9.184;2024-02-26T14:42:12;0.40;;;0.40;;
9218;SDS011;4644;48.858;9.184;2024-02-26T14:44:42;0.30;;;0.30;;
9218;SDS011;4644;48.858;9.184;2024-02-26T14:47:09;0.40;;;0.40;;
9218;SDS011;4644;48.858;9.184;2024-02-26T14:49:36;0.30;;;0.30;;
9218;SDS011;4644;48.858;9.184;2024-02-26T14:52:03;0.40;;;0.40;;
9218;SDS011;4644;48.858;9.184;2024-02-26T14:54:31;0.30;;;0.30;;
9218;SDS011;4644;48.858;9.184;2024-02-26T14:57:02;0.50;;;0.50;;
9218;SDS011;4644;48.858;9.184;2024-02-26T14:59:29;0.40;;;0.40;;
9218;SDS011;4644;48.858;9.184;2024-02-26T15:01:57;0.30;;;0.30;;
9218;SDS011;4644;48.858;9.184;2024-02-26T15:04:24;0.57;;;0.57;;
9218;SDS011;4644;48.858;9.184;2024-02-26T15:06:51;0.40;;;0.40;;
9218;SDS011;4644;48.858;9.184;2024-02-26T15:09:18;0.50;;;0.50;;
9218;SDS011;4644;48.858;9.184;2024-02-26T15:11:48;0.40;;;0.40;;
9218;SDS011;4644;48.858;9.184;2024-02-26T15:14:15;0.30;;;0.30;;
9218;SDS011;4644;48.858;9.184;2024-02-26T15:16:42;0.40;;;0.40;;
9218;SDS011;4644;48.858;9.184;2024-02-26T15:19:09;0.30;;;0.30;;
9218;SDS011;4644;48.858;9.184;2024-02-26T15:21:41;0.40;;;0.40;;
9218;SDS011;4644;48.858;9.184;2024-02-26T15:24:08;0.37;;;0.37;;